Time;durP1;ratioP1;P1;durP2;ratioP2;P2;SDS_P1;SDS_P2;PMS_P1;PMS_P2;Temp;Humidity;BMP_temperature;BMP_pressure;BME280_temperature;BME280_humidity;BME280_pressure;Samples;Min_cycle;Max_cycle;Signal;HPM_P1;HPM_P2
2023/10/19 00:00:49;;;;;;;8.50;5.75;;;;;;;;;;5072559;28;20048;-64
2023/10/19 00:03:15;;;;;;;7.43;5.00;;;;;;;;;;5071845;28;20048;-64
2023/10/19 00:05:42;;;;;;;7.22;5.07;;;;;;;;;;5071956;28;20059;-64
2023/10/19 00:08:17;;;;;;;8.18;5.25;;;;;;;;;;5071965;28;20061;-63
2023/10/19 00:10:45;;;;;;;7.78;5.13;;;;;;;;;;5078821;28;20052;-64
2023/10/19 00:13:12;;;;;;;9.52;4.97;;;;;;;;;;5094309;28;20044;-64
2023/10/19 00:15:40;;;;;;;6.70;4.75;;;;;;;;;;5111248;28;20055;-64
2023/10/19 00:18:20;;;;;;;6.55;3.95;;;;;;;;;;5112241;28;20051;-64
2023/10/19 00:20:51;;;;;;;;;;;;;;;;;;5108493;28;20044;-64
2023/10/19 00:23:24;;;;;;;5.65;4.03;;;;;;;;;;5092268;28;19923;-64
2023/10/19 00:25:51;;;;;;;5.30;4.00;;;;;;;;;;5098695;28;20125;-65
2023/10/19 00:28:17;;;;;;;5.05;3.85;;;;;;;;;;5111843;28;20558;-64
2023/10/19 00:30:45;;;;;;;5.60;3.70;;;;;;;;;;5112577;28;20051;-64
2023/10/19 00:33:17;;;;;;;6.68;3.72;;;;;;;;;;5112961;28;20054;-64
2023/10/19 00:35:46;;;;;;;5.20;3.47;;;;;;;;;;5112869;28;20504;-64
2023/10/19 00:38:21;;;;;;;5.30;3.83;;;;;;;;;;5112665;28;20062;-64
2023/10/19 00:40:54;;;;;;;4.93;3.63;;;;;;;;;;5077021;28;20048;-64
2023/10/19 00:43:32;;;;;;;5.80;3.78;;;;;;;;;;5072236;28;20057;-64
2023/10/19 00:46:01;;;;;;;7.25;4.30;;;;;;;;;;5071897;28;20057;-64
2023/10/19 00:48:28;;;;;;;4.68;3.75;;;;;;;;;;5074077;28;20056;-65
2023/10/19 00:51:06;;;;;;;5.50;4.13;;;;;;;;;;5076182;28;20049;-64
2023/10/19 00:53:34;;;;;;;4.78;3.90;;;;;;;;;;5076667;28;20526;-64
2023/10/19 00:56:05;;;;;;;4.68;3.50;;;;;;;;;;5075568;28;20052;-64
2023/10/19 00:58:35;;;;;;;5.97;4.00;;;;;;;;;;5076015;28;20416;-64
2023/10/19 01:01:05;;;;;;;5.25;3.70;;;;;;;;;;5076119;28;20048;-64
2023/10/19 01:03:36;;;;;;;4.30;3.00;;;;;;;;;;5075617;28;20396;-63
2023/10/19 01:06:09;;;;;;;3.35;2.67;;;;;;;;;;5075848;28;20052;-64
2023/10/19 01:08:41;;;;;;;3.72;2.80;;;;;;;;;;5076645;28;20059;-63
2023/10/19 01:11:11;;;;;;;4.55;3.10;;;;;;;;;;5094239;28;20044;-64
2023/10/19 01:13:38;;;;;;;3.50;2.80;;;;;;;;;;5095372;28;20044;-63
2023/10/19 01:16:05;;;;;;;4.20;3.30;;;;;;;;;;5095622;28;20067;-63
2023/10/19 01:18:32;;;;;;;4.65;3.50;;;;;;;;;;5095827;28;20056;-64
2023/10/19 01:21:02;;;;;;;5.05;3.15;;;;;;;;;;5096010;28;20052;-64
2023/10/19 01:23:31;;;;;;;4.78;3.35;;;;;;;;;;5094818;28;20083;-63
2023/10/19 01:26:01;;;;;;;4.43;3.30;;;;;;;;;;5093732;28;20055;-64
2023/10/19 01:28:41;;;;;;;5.43;3.78;;;;;;;;;;5095268;28;20057;-63
2023/10/19 01:31:08;;;;;;;5.63;3.78;;;;;;;;;;5095529;28;20507;-64
2023/10/19 01:33:35;;;;;;;6.22;4.00;;;;;;;;;;5095197;28;20048;-63
2023/10/19 01:36:10;;;;;;;7.53;4.65;;;;;;;;;;5095086;28;20063;-63
2023/10/19 01:38:38;;;;;;;5.40;3.90;;;;;;;;;;5095011;28;20052;-63
2023/10/19 01:41:07;;;;;;;5.72;4.22;;;;;;;;;;5077490;28;20052;-63
2023/10/19 01:43:36;;;;;;;7.22;4.68;;;;;;;;;;5075154;28;20392;-63
2023/10/19 01:46:04;;;;;;;5.80;4.93;;;;;;;;;;5074549;28;20059;-63
2023/10/19 01:48:33;;;;;;;6.90;4.97;;;;;;;;;;5079566;28;20469;-63
2023/10/19 01:50:59;;;;;;;5.95;4.68;;;;;;;;;;5095318;28;20051;-63
2023/10/19 01:53:26;;;;;;;5.75;4.32;;;;;;;;;;5095054;28;20043;-63
2023/10/19 01:55:57;;;;;;;6.20;4.55;;;;;;;;;;5077533;28;20048;-63
2023/10/19 01:58:26;;;;;;;5.47;4.45;;;;;;;;;;5074504;28;20067;-63
2023/10/19 02:00:54;;;;;;;5.95;4.75;;;;;;;;;;5073962;28;20048;-63
2023/10/19 02:03:22;;;;;;;7.15;4.68;;;;;;;;;;5074190;28;20052;-63
2023/10/19 02:05:52;;;;;;;6.68;4.45;;;;;;;;;;5074758;28;20489;-63
2023/10/19 02:08:22;;;;;;;8.00;4.95;;;;;;;;;;5074411;28;20052;-63
2023/10/19 02:10:49;;;;;;;;;;;;;;;;;;5089366;28;20048;-63
2023/10/19 02:13:19;;;;;;;5.60;4.03;;;;;;;;;;5094658;28;19927;-63
2023/10/19 02:15:45;;;;;;;6.00;4.55;;;;;;;;;;5094687;28;20416;-63
2023/10/19 02:18:11;;;;;;;7.13;4.82;;;;;;;;;;5094043;28;20056;-63
2023/10/19 02:20:40;;;;;;;6.03;4.95;;;;;;;;;;5094283;28;20512;-63
2023/10/19 02:23:07;;;;;;;5.80;4.53;;;;;;;;;;5094547;28;20052;-65
2023/10/19 02:25:36;;;;;;;5.90;4.60;;;;;;;;;;5079828;28;20048;-64
2023/10/19 02:28:03;;;;;;;8.73;5.63;;;;;;;;;;5074239;28;20060;-63
2023/10/19 02:30:31;;;;;;;6.90;4.85;;;;;;;;;;5074344;28;20055;-63
2023/10/19 02:32:57;;;;;;;6.82;5.03;;;;;;;;;;5074078;28;20056;-64
2023/10/19 02:35:24;;;;;;;6.10;4.82;;;;;;;;;;5074217;28;20059;-64
2023/10/19 02:37:49;;;;;;;6.70;4.65;;;;;;;;;;5073995;28;20489;-63
2023/10/19 02:40:21;;;;;;;6.72;4.13;;;;;;;;;;5075256;28;20052;-64
2023/10/19 02:42:47;;;;;;;5.03;4.15;;;;;;;;;;5074045;28;20424;-63
2023/10/19 02:45:15;;;;;;;6.15;4.07;;;;;;;;;;5078306;28;20055;-63
2023/10/19 02:47:45;;;;;;;5.25;4.43;;;;;;;;;;5093427;28;20056;-64
2023/10/19 02:50:13;;;;;;;;;;;;;;;;;;5094316;28;20055;-64
2023/10/19 02:52:41;;;;;;;5.47;4.10;;;;;;;;;;5094364;28;19916;-63
2023/10/19 02:55:07;;;;;;;6.50;4.25;;;;;;;;;;5082800;28;20060;-64
2023/10/19 02:57:34;;;;;;;5.72;4.75;;;;;;;;;;5073792;28;20049;-64
2023/10/19 03:00:01;;;;;;;5.15;3.95;;;;;;;;;;5073677;28;20435;-64
2023/10/19 03:02:28;;;;;;;5.07;4.10;;;;;;;;;;5093192;28;20055;-64
2023/10/19 03:04:55;;;;;;;6.18;4.10;;;;;;;;;;5093563;28;20051;-65
2023/10/19 03:07:21;;;;;;;5.70;3.80;;;;;;;;;;5093413;28;20484;-64
2023/10/19 03:09:53;;;;;;;6.35;3.78;;;;;;;;;;5082789;28;20052;-64
2023/10/19 03:12:25;;;;;;;5.68;3.97;;;;;;;;;;5072911;28;20056;-64
2023/10/19 03:14:51;;;;;;;5.13;3.83;;;;;;;;;;5072998;28;20052;-64
2023/10/19 03:17:19;;;;;;;3.45;2.88;;;;;;;;;;5072965;28;20044;-63
2023/10/19 03:19:46;;;;;;;5.22;3.95;;;;;;;;;;5073448;28;20076;-64
2023/10/19 03:22:16;;;;;;;4.22;3.25;;;;;;;;;;5073173;28;20049;-64
2023/10/19 03:24:43;;;;;;;5.22;3.30;;;;;;;;;;5074763;28;20048;-64
2023/10/19 03:27:13;;;;;;;4.32;3.40;;;;;;;;;;5073079;28;20052;-63
2023/10/19 03:29:40;;;;;;;4.22;3.20;;;;;;;;;;5072813;28;20059;-64
2023/10/19 03:32:07;;;;;;;5.38;3.35;;;;;;;;;;5072776;28;20116;-64
2023/10/19 03:34:35;;;;;;;3.83;2.90;;;;;;;;;;5072819;28;20052;-64
2023/10/19 03:37:05;;;;;;;4.03;3.30;;;;;;;;;;5072582;28;20060;-63
2023/10/19 03:39:35;;;;;;;3.88;2.72;;;;;;;;;;5074060;28;20059;-64
2023/10/19 03:42:05;;;;;;;3.55;2.72;;;;;;;;;;5071484;28;20049;-63
2023/10/19 03:44:44;;;;;;;4.40;3.15;;;;;;;;;;5071782;28;20052;-63
2023/10/19 03:47:14;;;;;;;3.65;2.72;;;;;;;;;;5072290;28;20091;-63
2023/10/19 03:49:41;;;;;;;7.60;3.17;;;;;;;;;;5072803;28;20052;-64
2023/10/19 03:52:21;;;;;;;3.35;2.47;;;;;;;;;;5072280;28;20048;-63
2023/10/19 03:54:48;;;;;;;;;;;;;;;;;;5073955;28;20059;-63
2023/10/19 03:57:19;;;;;;;2.80;2.25;;;;;;;;;;5092808;28;19920;-63
2023/10/19 03:59:46;;;;;;;5.05;2.75;;;;;;;;;;5092671;28;20500;-63
2023/10/19 04:02:16;;;;;;;4.82;3.17;;;;;;;;;;5092473;28;20048;-63
2023/10/19 04:04:44;;;;;;;3.65;2.70;;;;;;;;;;5106238;28;20058;-63
2023/10/19 04:07:18;;;;;;;3.92;2.42;;;;;;;;;;5113238;28;20059;-62
2023/10/19 04:09:59;;;;;;;4.57;2.65;;;;;;;;;;5103235;28;20063;-63
2023/10/19 04:12:30;;;;;;;4.47;2.92;;;;;;;;;;5126209;28;20055;-63
2023/10/19 04:14:57;;;;;;;4.50;2.90;;;;;;;;;;5133749;28;20070;-63
2023/10/19 04:17:24;;;;;;;3.63;2.88;;;;;;;;;;5133172;28;20051;-63
2023/10/19 04:19:52;;;;;;;4.28;2.72;;;;;;;;;;5133730;28;20145;-63
2023/10/19 04:22:23;;;;;;;5.15;2.58;;;;;;;;;;5121746;28;20408;-62
2023/10/19 04:24:50;;;;;;;3.95;2.67;;;;;;;;;;5097977;27;20056;-62
2023/10/19 04:27:16;;;;;;;3.47;2.83;;;;;;;;;;5111245;28;20051;-63
2023/10/19 04:29:45;;;;;;;3.85;2.53;;;;;;;;;;5099530;28;20052;-62
2023/10/19 04:32:14;;;;;;;3.17;2.30;;;;;;;;;;5111535;27;20047;-63
2023/10/19 04:34:40;;;;;;;3.57;2.53;;;;;;;;;;5114842;28;20404;-63
2023/10/19 04:37:12;;;;;;;4.88;2.72;;;;;;;;;;5116890;28;21008;-63
2023/10/19 04:39:39;;;;;;;3.50;2.42;;;;;;;;;;5115286;28;20396;-62
2023/10/19 04:42:06;;;;;;;3.85;2.35;;;;;;;;;;5130258;27;20408;-62
2023/10/19 04:44:34;;;;;;;3.50;2.40;;;;;;;;;;5112807;27;20403;-61
2023/10/19 04:47:02;;;;;;;3.67;2.28;;;;;;;;;;5112467;28;20412;-63
2023/10/19 04:49:29;;;;;;;2.92;1.98;;;;;;;;;;5106384;27;20074;-64
2023/10/19 04:51:56;;;;;;;3.33;1.85;;;;;;;;;;5101350;27;20044;-63
2023/10/19 04:54:23;;;;;;;4.05;2.25;;;;;;;;;;5099200;27;20058;-54
2023/10/19 04:56:50;;;;;;;3.15;2.20;;;;;;;;;;5096332;28;20416;-54
2023/10/19 04:59:16;;;;;;;6.30;2.40;;;;;;;;;;5106858;27;20070;-63
2023/10/19 05:01:43;;;;;;;3.55;2.35;;;;;;;;;;5102452;27;20063;-63
2023/10/19 05:04:12;;;;;;;3.25;2.40;;;;;;;;;;5122589;27;20476;-62
2023/10/19 05:06:39;;;;;;;3.03;2.50;;;;;;;;;;5109560;27;20055;-63
2023/10/19 05:09:06;;;;;;;3.17;2.38;;;;;;;;;;5112223;28;20496;-63
2023/10/19 05:11:33;;;;;;;3.90;2.50;;;;;;;;;;5120284;27;20066;-63
2023/10/19 05:13:59;;;;;;;4.22;2.75;;;;;;;;;;5115027;28;20051;-63
2023/10/19 05:16:26;;;;;;;4.97;3.17;;;;;;;;;;5115463;27;20051;-63
2023/10/19 05:18:53;;;;;;;3.50;2.75;;;;;;;;;;5115208;27;20138;-63
2023/10/19 05:21:21;;;;;;;6.38;2.97;;;;;;;;;;5115625;28;20055;-63
2023/10/19 05:23:48;;;;;;;4.50;2.70;;;;;;;;;;5115094;28;20078;-63
2023/10/19 05:26:15;;;;;;;3.97;3.00;;;;;;;;;;5111857;27;20055;-63
2023/10/19 05:28:43;;;;;;;3.85;2.78;;;;;;;;;;5111725;28;20408;-63
2023/10/19 05:31:11;;;;;;;5.88;3.38;;;;;;;;;;5115414;28;20404;-63
2023/10/19 05:33:38;;;;;;;5.15;3.33;;;;;;;;;;5113904;28;20051;-62
2023/10/19 05:36:05;;;;;;;4.82;2.97;;;;;;;;;;5114190;28;20058;-63
2023/10/19 05:38:34;;;;;;;4.93;3.03;;;;;;;;;;5115568;28;20070;-63
2023/10/19 05:41:01;;;;;;;3.58;2.67;;;;;;;;;;5099762;28;20063;-63
2023/10/19 05:43:28;;;;;;;4.72;3.05;;;;;;;;;;5114514;28;20055;-62
2023/10/19 05:45:56;;;;;;;4.40;2.60;;;;;;;;;;5122743;27;20062;-62
2023/10/19 05:48:24;;;;;;;4.25;2.28;;;;;;;;;;5131757;27;20481;-63
2023/10/19 05:50:50;;;;;;;4.20;2.67;;;;;;;;;;5115590;28;20048;-63
2023/10/19 05:53:18;;;;;;;3.50;2.30;;;;;;;;;;5114797;28;20481;-63
2023/10/19 05:55:46;;;;;;;3.70;1.90;;;;;;;;;;5101912;28;20056;-63
2023/10/19 05:58:13;;;;;;;4.47;2.38;;;;;;;;;;5103977;28;20055;-63
2023/10/19 06:00:40;;;;;;;4.57;2.50;;;;;;;;;;5110405;27;20480;-63
2023/10/19 06:03:06;;;;;;;4.30;2.97;;;;;;;;;;5094828;28;20044;-63
2023/10/19 06:05:33;;;;;;;4.13;3.28;;;;;;;;;;5114181;28;20074;-63
2023/10/19 06:08:00;;;;;;;4.57;3.25;;;;;;;;;;5114363;28;20064;-62
2023/10/19 06:10:28;;;;;;;6.00;3.00;;;;;;;;;;5106216;27;20048;-62
2023/10/19 06:12:57;;;;;;;5.97;2.90;;;;;;;;;;5099015;28;20492;-62
2023/10/19 06:15:24;;;;;;;5.63;3.22;;;;;;;;;;5106107;27;20051;-63
2023/10/19 06:17:52;;;;;;;4.25;2.83;;;;;;;;;;5098688;28;20440;-63
2023/10/19 06:20:26;;;;;;;5.18;3.67;;;;;;;;;;5091975;28;20052;-63
2023/10/19 06:22:54;;;;;;;5.47;3.05;;;;;;;;;;5093885;28;20056;-63
2023/10/19 06:25:21;;;;;;;6.55;4.05;;;;;;;;;;5094071;28;20059;-63
2023/10/19 06:27:48;;;;;;;7.20;3.80;;;;;;;;;;5094245;28;20052;-63
2023/10/19 06:30:21;;;;;;;5.32;3.45;;;;;;;;;;5094260;28;20070;-63
2023/10/19 06:32:48;;;;;;;6.22;3.40;;;;;;;;;;5093842;28;20044;-63
2023/10/19 06:35:15;;;;;;;6.43;3.53;;;;;;;;;;5094173;28;20048;-63
2023/10/19 06:37:43;;;;;;;5.50;3.20;;;;;;;;;;5094125;28;20431;-62
2023/10/19 06:40:12;;;;;;;5.75;3.58;;;;;;;;;;5093498;28;20079;-63
2023/10/19 06:42:39;;;;;;;5.37;3.57;;;;;;;;;;5094113;28;20389;-63
2023/10/19 06:45:07;;;;;;;5.05;3.53;;;;;;;;;;5096531;28;20054;-63
2023/10/19 06:47:37;;;;;;;5.22;3.63;;;;;;;;;;5114214;28;20436;-63
2023/10/19 06:50:05;;;;;;;6.30;4.18;;;;;;;;;;5114542;28;20052;-63
2023/10/19 06:52:32;;;;;;;6.60;3.80;;;;;;;;;;5113998;28;20051;-63
2023/10/19 06:54:59;;;;;;;5.30;3.90;;;;;;;;;;5114528;28;20059;-63
2023/10/19 06:57:27;;;;;;;7.95;4.10;;;;;;;;;;5113904;28;20055;-63
2023/10/19 06:59:54;;;;;;;6.05;4.15;;;;;;;;;;5114407;28;20048;-62
2023/10/19 07:02:21;;;;;;;6.53;3.58;;;;;;;;;;5113919;28;20059;-62
2023/10/19 07:04:49;;;;;;;5.30;3.70;;;;;;;;;;5114126;28;20055;-62
2023/10/19 07:07:16;;;;;;;6.32;4.78;;;;;;;;;;5113174;28;20365;-62
2023/10/19 07:09:43;;;;;;;4.93;3.60;;;;;;;;;;5113447;28;20420;-63
2023/10/19 07:12:10;;;;;;;8.43;4.47;;;;;;;;;;5113763;28;20043;-62
2023/10/19 07:14:37;;;;;;;7.35;3.95;;;;;;;;;;5113671;28;20058;-63
2023/10/19 07:17:03;;;;;;;7.68;3.70;;;;;;;;;;5113423;28;20408;-63
2023/10/19 07:19:30;;;;;;;5.47;3.95;;;;;;;;;;5113633;28;20055;-62
2023/10/19 07:21:59;;;;;;;7.00;3.75;;;;;;;;;;5113846;28;20052;-62
2023/10/19 07:24:25;;;;;;;6.40;3.80;;;;;;;;;;5113760;28;20055;-62
2023/10/19 07:27:03;;;;;;;7.43;3.90;;;;;;;;;;5113768;28;20060;-62
2023/10/19 07:29:30;;;;;;;5.32;3.65;;;;;;;;;;5113800;28;20055;-62
2023/10/19 07:31:58;;;;;;;7.60;3.92;;;;;;;;;;5113604;28;20511;-62
2023/10/19 07:34:28;;;;;;;6.78;3.95;;;;;;;;;;5113651;28;20051;-62
2023/10/19 07:36:55;;;;;;;7.28;3.70;;;;;;;;;;5113565;28;20051;-62
2023/10/19 07:39:23;;;;;;;6.22;3.38;;;;;;;;;;5113657;28;20052;-62
2023/10/19 07:41:51;;;;;;;6.57;3.00;;;;;;;;;;5113084;28;20048;-62
2023/10/19 07:44:17;;;;;;;5.38;3.17;;;;;;;;;;5112787;28;20055;-62
2023/10/19 07:46:44;;;;;;;6.47;3.10;;;;;;;;;;5112728;28;20538;-62
2023/10/19 07:49:14;;;;;;;3.53;2.63;;;;;;;;;;5112947;28;20058;-62
2023/10/19 07:51:42;;;;;;;7.22;3.55;;;;;;;;;;5113001;28;20051;-62
2023/10/19 07:54:09;;;;;;;6.50;3.85;;;;;;;;;;5113205;28;20044;-63
2023/10/19 07:56:37;;;;;;;8.23;3.17;;;;;;;;;;5113072;28;20051;-62
2023/10/19 07:59:04;;;;;;;4.88;3.13;;;;;;;;;;5112394;28;20066;-62
2023/10/19 08:01:31;;;;;;;6.30;3.13;;;;;;;;;;5111781;28;20488;-63
2023/10/19 08:03:58;;;;;;;5.57;3.40;;;;;;;;;;5112965;28;20043;-62
2023/10/19 08:06:26;;;;;;;7.88;4.15;;;;;;;;;;5112747;28;20051;-62
2023/10/19 08:08:53;;;;;;;6.63;3.00;;;;;;;;;;5113127;28;20062;-62
2023/10/19 08:11:20;;;;;;;3.78;2.40;;;;;;;;;;5111644;28;20429;-62
2023/10/19 08:13:49;;;;;;;3.97;2.47;;;;;;;;;;5110081;28;20049;-62
2023/10/19 08:16:16;;;;;;;4.38;2.92;;;;;;;;;;5111909;28;20166;-62
2023/10/19 08:18:43;;;;;;;3.90;2.42;;;;;;;;;;5112511;28;20048;-62
2023/10/19 08:21:10;;;;;;;5.95;3.42;;;;;;;;;;5111813;28;20519;-62
2023/10/19 08:23:37;;;;;;;6.18;3.17;;;;;;;;;;5113002;28;20058;-62
2023/10/19 08:26:05;;;;;;;4.40;2.80;;;;;;;;;;5112973;28;20059;-62
2023/10/19 08:28:32;;;;;;;3.92;2.38;;;;;;;;;;5112846;28;20487;-61
2023/10/19 08:31:01;;;;;;;8.23;2.80;;;;;;;;;;5111016;28;20055;-62
2023/10/19 08:33:29;;;;;;;3.45;2.00;;;;;;;;;;5111970;28;20055;-62
2023/10/19 08:35:56;;;;;;;4.80;2.15;;;;;;;;;;5112942;28;20052;-61
2023/10/19 08:38:24;;;;;;;3.92;1.90;;;;;;;;;;5112321;28;20059;-62
2023/10/19 08:40:51;;;;;;;4.43;2.20;;;;;;;;;;5112212;28;20047;-61
2023/10/19 08:43:19;;;;;;;5.72;2.47;;;;;;;;;;5112565;28;20043;-62
2023/10/19 08:45:45;;;;;;;9.65;2.15;;;;;;;;;;5112514;28;20507;-62
2023/10/19 08:48:14;;;;;;;5.15;1.95;;;;;;;;;;5112300;28;20074;-61
2023/10/19 08:50:41;;;;;;;3.50;1.98;;;;;;;;;;5112423;28;20056;-62
2023/10/19 08:53:09;;;;;;;9.63;3.03;;;;;;;;;;5112643;28;20048;-61
2023/10/19 08:55:36;;;;;;;3.30;1.90;;;;;;;;;;5112610;28;20525;-61
2023/10/19 08:58:05;;;;;;;4.95;1.83;;;;;;;;;;5112319;28;20052;-61
2023/10/19 09:00:44;;;;;;;7.57;1.67;;;;;;;;;;5111834;28;20051;-61
2023/10/19 09:03:13;;;;;;;2.78;1.58;;;;;;;;;;5111512;28;20484;-62
2023/10/19 09:05:40;;;;;;;;;;;;;;;;;;5112404;28;20062;-61
2023/10/19 09:08:09;;;;;;;4.60;1.90;;;;;;;;;;5112445;28;19927;-61
2023/10/19 09:10:37;;;;;;;3.85;1.90;;;;;;;;;;5116426;28;20055;-62
2023/10/19 09:13:07;;;;;;;4.03;2.30;;;;;;;;;;5116212;28;20059;-62
2023/10/19 09:15:35;;;;;;;3.85;2.00;;;;;;;;;;5116549;28;20051;-62
2023/10/19 09:18:13;;;;;;;2.95;1.58;;;;;;;;;;5115952;28;20056;-61
2023/10/19 09:20:41;;;;;;;3.63;1.98;;;;;;;;;;5115897;28;20055;-62
2023/10/19 09:23:10;;;;;;;4.28;2.03;;;;;;;;;;5116171;28;20400;-62
2023/10/19 09:25:39;;;;;;;2.58;1.55;;;;;;;;;;5116427;28;20055;-62
2023/10/19 09:28:06;;;;;;;4.72;1.60;;;;;;;;;;5116218;28;20052;-61
2023/10/19 09:30:34;;;;;;;3.63;1.90;;;;;;;;;;5116185;28;20063;-62
2023/10/19 09:33:01;;;;;;;4.35;1.73;;;;;;;;;;5115683;28;20050;-61
2023/10/19 09:35:31;;;;;;;3.60;1.60;;;;;;;;;;5116087;28;20059;-62
2023/10/19 09:37:59;;;;;;;3.78;1.63;;;;;;;;;;5115575;28;20056;-62
2023/10/19 09:40:29;;;;;;;4.80;1.65;;;;;;;;;;5116025;28;20047;-61
2023/10/19 09:42:57;;;;;;;3.28;1.80;;;;;;;;;;5115600;28;20047;-61
2023/10/19 09:45:28;;;;;;;6.68;1.48;;;;;;;;;;5115698;28;20051;-62
2023/10/19 09:47:56;;;;;;;2.58;1.48;;;;;;;;;;5115253;28;20067;-62
2023/10/19 09:50:23;;;;;;;3.92;1.70;;;;;;;;;;5115947;28;20476;-61
2023/10/19 09:52:52;;;;;;;3.75;1.90;;;;;;;;;;5115588;28;20511;-62
2023/10/19 09:55:25;;;;;;;2.75;1.55;;;;;;;;;;5115111;28;20055;-62
2023/10/19 09:57:55;;;;;;;5.93;1.80;;;;;;;;;;5115265;28;20051;-62
2023/10/19 10:00:24;;;;;;;4.32;1.90;;;;;;;;;;5107085;28;20078;-62
2023/10/19 10:02:51;;;;;;;5.53;1.80;;;;;;;;;;5115439;28;20079;-61
2023/10/19 10:05:37;;;;;;;3.80;1.42;;;;;;;;;;5115794;28;20055;-62
2023/10/19 10:08:22;;;;;;;3.17;1.50;;;;;;;;;;5114992;28;20421;-62
2023/10/19 10:10:49;;;;;;;4.35;1.65;;;;;;;;;;5104706;28;20499;-62
2023/10/19 10:13:31;;;;;;;7.80;2.13;;;;;;;;;;5115329;28;20063;-61
2023/10/19 10:16:00;;;;;;;4.43;1.58;;;;;;;;;;5112764;28;20047;-62
2023/10/19 10:18:27;;;;;;;4.50;1.52;;;;;;;;;;5114698;28;20055;-62
2023/10/19 10:21:05;;;;;;;8.90;2.20;;;;;;;;;;5113801;28;20058;-62
2023/10/19 10:23:34;;;;;;;5.63;1.65;;;;;;;;;;5114667;28;20052;-60
2023/10/19 10:26:00;;;;;;;5.10;1.67;;;;;;;;;;5115073;28;20424;-60
2023/10/19 10:28:28;;;;;;;3.45;1.23;;;;;;;;;;5114592;28;20056;-60
2023/10/19 10:31:09;;;;;;;5.13;1.67;;;;;;;;;;5115085;28;20056;-59
2023/10/19 10:33:41;;;;;;;3.38;1.30;;;;;;;;;;5112049;28;20392;-60
2023/10/19 10:36:09;;;;;;;3.85;1.70;;;;;;;;;;5114600;28;20423;-59
2023/10/19 10:38:36;;;;;;;5.03;1.60;;;;;;;;;;5114341;28;20503;-59
2023/10/19 10:41:03;;;;;;;4.90;1.63;;;;;;;;;;5114019;28;20047;-60
2023/10/19 10:43:30;;;;;;;5.63;1.60;;;;;;;;;;5114818;28;20425;-60
2023/10/19 10:46:07;;;;;;;4.05;1.73;;;;;;;;;;5114146;28;20055;-60
2023/10/19 10:48:36;;;;;;;4.50;1.90;;;;;;;;;;5114053;28;20110;-60
2023/10/19 10:51:04;;;;;;;3.03;1.33;;;;;;;;;;5114552;28;20067;-60
2023/10/19 10:53:32;;;;;;;3.05;1.30;;;;;;;;;;5114320;28;20044;-59
2023/10/19 10:56:01;;;;;;;3.05;1.23;;;;;;;;;;5114504;28;20052;-59
2023/10/19 10:58:27;;;;;;;;;;;;;;;;;;5114633;28;20056;-59
2023/10/19 11:00:54;;;;;;;8.05;1.90;;;;;;;;;;5114053;28;19920;-59
2023/10/19 11:03:22;;;;;;;5.25;2.42;;;;;;;;;;5113447;28;20063;-60
2023/10/19 11:05:49;;;;;;;3.67;2.10;;;;;;;;;;5114166;28;20056;-60
2023/10/19 11:08:20;;;;;;;3.72;1.88;;;;;;;;;;5113772;28;20059;-59
2023/10/19 11:10:47;;;;;;;3.42;1.80;;;;;;;;;;5113505;28;20055;-60
2023/10/19 11:13:15;;;;;;;3.33;1.85;;;;;;;;;;5113942;28;20480;-60
2023/10/19 11:15:48;;;;;;;3.83;1.90;;;;;;;;;;5114023;28;20389;-60
2023/10/19 11:18:28;;;;;;;5.25;1.90;;;;;;;;;;5113480;28;20051;-61
2023/10/19 11:20:56;;;;;;;3.90;2.17;;;;;;;;;;5113964;28;20051;-59
2023/10/19 11:23:36;;;;;;;4.03;2.20;;;;;;;;;;5113942;28;20052;-60
2023/10/19 11:26:05;;;;;;;4.30;2.47;;;;;;;;;;5113742;28;20063;-60
2023/10/19 11:28:32;;;;;;;8.82;3.13;;;;;;;;;;5113839;28;20138;-59
2023/10/19 11:31:11;;;;;;;11.48;3.22;;;;;;;;;;5113595;28;20058;-59
2023/10/19 11:33:38;;;;;;;10.13;3.70;;;;;;;;;;5113094;28;20052;-60
2023/10/19 11:36:05;;;;;;;5.35;2.40;;;;;;;;;;5112937;28;20058;-60
2023/10/19 11:38:32;;;;;;;6.88;2.53;;;;;;;;;;5113764;28;20048;-60
2023/10/19 11:41:03;;;;;;;4.93;2.05;;;;;;;;;;5113137;28;20091;-61
2023/10/19 11:43:29;;;;;;;5.70;2.72;;;;;;;;;;5113639;28;20059;-60
2023/10/19 11:45:56;;;;;;;4.68;2.20;;;;;;;;;;5111314;28;20055;-60
2023/10/19 11:48:23;;;;;;;5.75;2.40;;;;;;;;;;5092486;28;20409;-59
2023/10/19 11:50:50;;;;;;;3.63;2.00;;;;;;;;;;5092530;28;20056;-59
2023/10/19 11:53:17;;;;;;;4.40;1.95;;;;;;;;;;5092391;28;20060;-59
2023/10/19 11:55:43;;;;;;;4.00;1.85;;;;;;;;;;5092231;28;20055;-59
2023/10/19 11:58:13;;;;;;;5.32;1.88;;;;;;;;;;5092303;28;20058;-59
2023/10/19 12:00:43;;;;;;;3.53;1.60;;;;;;;;;;5092890;28;20062;-59
2023/10/19 12:03:10;;;;;;;5.55;1.67;;;;;;;;;;5092234;28;20510;-60
2023/10/19 12:05:38;;;;;;;4.75;1.27;;;;;;;;;;5092054;28;20507;-59
2023/10/19 12:08:06;;;;;;;5.93;1.80;;;;;;;;;;5092651;28;20055;-60
2023/10/19 12:10:35;;;;;;;4.68;1.60;;;;;;;;;;5093065;28;20052;-59
2023/10/19 12:13:02;;;;;;;4.20;1.30;;;;;;;;;;5092404;28;20048;-59
2023/10/19 12:15:32;;;;;;;3.42;1.27;;;;;;;;;;5093003;28;20056;-59
2023/10/19 12:17:59;;;;;;;3.97;1.70;;;;;;;;;;5092473;28;20052;-59
2023/10/19 12:20:26;;;;;;;3.20;1.38;;;;;;;;;;5092798;28;20650;-59
2023/10/19 12:22:53;;;;;;;3.45;1.23;;;;;;;;;;5092600;28;20052;-60
2023/10/19 12:25:21;;;;;;;4.50;1.80;;;;;;;;;;5092488;28;20052;-59
2023/10/19 12:27:48;;;;;;;4.25;1.55;;;;;;;;;;5092403;28;20389;-59
2023/10/19 12:30:20;;;;;;;3.45;1.33;;;;;;;;;;5092480;28;20087;-59
2023/10/19 12:32:51;;;;;;;5.38;1.35;;;;;;;;;;5092610;28;20432;-59
2023/10/19 12:35:19;;;;;;;4.93;1.17;;;;;;;;;;5092634;28;20468;-59
2023/10/19 12:37:51;;;;;;;3.85;1.25;;;;;;;;;;5092259;28;20074;-59
2023/10/19 12:40:31;;;;;;;3.83;1.23;;;;;;;;;;5092288;28;20059;-60
2023/10/19 12:43:00;;;;;;;3.15;1.23;;;;;;;;;;5091639;28;20068;-59
2023/10/19 12:45:27;;;;;;;4.03;1.10;;;;;;;;;;5095567;28;20040;-59
2023/10/19 12:47:55;;;;;;;2.80;1.33;;;;;;;;;;5095865;28;20052;-59
2023/10/19 12:50:23;;;;;;;5.10;1.58;;;;;;;;;;5096131;28;20059;-58
2023/10/19 12:52:50;;;;;;;5.85;1.52;;;;;;;;;;5095219;28;20063;-58
2023/10/19 12:55:17;;;;;;;4.30;1.15;;;;;;;;;;5096309;28;20473;-59
2023/10/19 12:57:44;;;;;;;3.33;1.55;;;;;;;;;;5095879;28;20059;-59
2023/10/19 13:00:25;;;;;;;5.13;1.25;;;;;;;;;;5096221;28;20416;-59
2023/10/19 13:02:59;;;;;;;3.67;1.30;;;;;;;;;;5095572;28;20052;-59
2023/10/19 13:05:28;;;;;;;2.72;1.40;;;;;;;;;;5096098;28;20052;-59
2023/10/19 13:07:58;;;;;;;4.63;1.50;;;;;;;;;;5096282;28;20048;-59
2023/10/19 13:10:32;;;;;;;3.78;1.30;;;;;;;;;;5096008;28;20059;-59
2023/10/19 13:12:59;;;;;;;3.33;1.20;;;;;;;;;;5095588;28;20055;-59
2023/10/19 13:15:30;;;;;;;3.75;1.35;;;;;;;;;;5095155;28;20059;-59
2023/10/19 13:17:58;;;;;;;4.32;1.30;;;;;;;;;;5095623;28;20063;-58
2023/10/19 13:20:25;;;;;;;4.25;1.63;;;;;;;;;;5095926;28;20063;-59
2023/10/19 13:22:55;;;;;;;5.20;1.33;;;;;;;;;;5095441;28;20052;-59
2023/10/19 13:25:38;;;;;;;4.75;1.48;;;;;;;;;;5096097;28;20079;-59
2023/10/19 13:28:08;;;;;;;5.55;1.58;;;;;;;;;;5096027;28;20056;-59
2023/10/19 13:30:37;;;;;;;3.08;1.35;;;;;;;;;;5095245;28;20052;-60
2023/10/19 13:33:05;;;;;;;5.18;1.63;;;;;;;;;;5095651;28;20078;-60
2023/10/19 13:35:31;;;;;;;4.68;1.33;;;;;;;;;;5095823;28;20063;-59
2023/10/19 13:37:59;;;;;;;4.68;1.58;;;;;;;;;;5095647;28;20056;-59
2023/10/19 13:40:29;;;;;;;5.43;1.80;;;;;;;;;;5095601;28;20151;-59
2023/10/19 13:42:56;;;;;;;5.18;1.25;;;;;;;;;;5095213;28;20524;-60
2023/10/19 13:45:23;;;;;;;5.47;1.55;;;;;;;;;;5095512;28;20048;-59
2023/10/19 13:47:50;;;;;;;5.65;1.40;;;;;;;;;;5112568;28;20055;-59
2023/10/19 13:50:18;;;;;;;4.53;1.75;;;;;;;;;;5115798;28;20075;-59
2023/10/19 13:52:44;;;;;;;4.50;1.55;;;;;;;;;;5115629;28;20055;-59
2023/10/19 13:55:17;;;;;;;3.70;1.35;;;;;;;;;;5114435;28;20055;-58
2023/10/19 13:57:43;;;;;;;6.50;1.58;;;;;;;;;;5115070;28;20051;-59
2023/10/19 14:00:11;;;;;;;3.05;1.30;;;;;;;;;;5114929;28;20055;-58
2023/10/19 14:02:38;;;;;;;4.15;1.60;;;;;;;;;;5114878;28;20056;-58
2023/10/19 14:05:06;;;;;;;4.57;1.50;;;;;;;;;;5115507;28;20070;-58
2023/10/19 14:07:33;;;;;;;4.50;1.30;;;;;;;;;;5115097;28;20059;-58
2023/10/19 14:10:00;;;;;;;4.80;1.75;;;;;;;;;;5114672;28;20051;-58
2023/10/19 14:12:29;;;;;;;4.22;1.50;;;;;;;;;;5115006;28;20133;-60
2023/10/19 14:14:56;;;;;;;4.63;1.60;;;;;;;;;;5115191;28;20051;-58
2023/10/19 14:17:23;;;;;;;4.32;1.60;;;;;;;;;;5115031;28;20071;-60
2023/10/19 14:19:49;;;;;;;4.47;1.50;;;;;;;;;;5115103;28;20058;-61
2023/10/19 14:22:17;;;;;;;5.05;1.35;;;;;;;;;;5115192;28;20048;-60
2023/10/19 14:24:44;;;;;;;4.22;1.80;;;;;;;;;;5114914;28;20063;-60
2023/10/19 14:27:11;;;;;;;6.13;1.92;;;;;;;;;;5114805;28;20061;-60
2023/10/19 14:29:39;;;;;;;4.53;1.38;;;;;;;;;;5114661;28;20381;-60
2023/10/19 14:32:06;;;;;;;7.97;1.88;;;;;;;;;;5114553;28;20058;-59
2023/10/19 14:34:33;;;;;;;6.13;1.98;;;;;;;;;;5114721;28;20396;-59
2023/10/19 14:37:00;;;;;;;3.47;1.30;;;;;;;;;;5114442;28;20044;-60
2023/10/19 14:39:27;;;;;;;4.95;1.58;;;;;;;;;;5114643;28;20063;-60
2023/10/19 14:41:53;;;;;;;4.97;1.83;;;;;;;;;;5114102;28;20416;-59
2023/10/19 14:44:21;;;;;;;5.47;1.90;;;;;;;;;;5114299;28;20066;-60
2023/10/19 14:46:49;;;;;;;2.22;1.20;;;;;;;;;;5113725;28;20051;-59
2023/10/19 14:49:18;;;;;;;5.25;1.63;;;;;;;;;;5113620;28;20063;-59
2023/10/19 14:51:44;;;;;;;4.65;1.40;;;;;;;;;;5114009;28;20057;-59
2023/10/19 14:54:12;;;;;;;4.32;1.50;;;;;;;;;;5113733;28;20066;-60